CTX weather

Cortland County Chase Field
Cortland, New York, United States

Public forecast

Using degrees Fahrenheit for public forecast. Weather courtesy of forecast.io.

METAR (pilot weather report)

Retrieved 2019/04/19 08:35 UTC (28 seconds ago):

KN03 190835Z AUTO 21007G17KT 10SM CLR 17/10 A2964 RMK AO2

TAF (pilot weather forecast)

Closest forecast is Ithaca Tompkins Regional Airport, 12.4 nm (22.9 km) WSW. Retrieved 2019/04/19 06:27 UTC (2 hours ago):

TAF KITH 190524Z 1906/2006 16010KT P6SM BKN120 WS020/21050KT FM191400 18012G20KT P6SM OVC035 FM192100 17010KT 6SM -SHRA BR OVC022 FM192300 18008KT 4SM -SHRA BR OVC017 TEMPO 2001/2005 2SM -TSRA BR OVC030CB